»·PEaware :: DAWG22 KOLM-KSEA

DAWG22 :: KOLM-KSEA

FLIGHT INFORMATION

Flight Status: Arrived
Operator: Unknown
More flights by this operator :: More flights under this callsign
Pilot: Jonathan B. (21718)
Aircraft: BEECH AIRCRAFT T-6A TEXAN
(TEX2)
More flights by this aircraft type
Origin: KOLM Olympia
United States
Destination: KSEA Seattle-Tacoma Intl
United States
More flights between these airports :: More routes between these airports
Route: YELM5 OLM/D015 V287 PAE/D015
File this flight plan on PilotEdge
Remarks: Local IFR Radar Delay KOLM / D0+15
Altitude:
(Current/Filed)
7,000ft
Speed:
(Current/Filed)
260kts
Departed: 07-Sep-21 08:35 AM
Arrived: 07-Sep-21 09:42 AM
Distance/Time
Traveled:
37nm/1:06
Distance/Time
To Go:
Arrived

Flight Plot

Page will automatically refresh every two minutes.

Flight plan parsing failed; only flown route is shown


Map Options




Map Legend


Flown Route
Filed Route
Departure Airport
Arrival Airport
Navaid (VOR, NDB)
Fix

Horizontal Profiles

Position Reports

Time Latitude Longitude Heading Altitude Ground
Speed
07-Sep-21 08:15 46.975460 -122.898914 238 211ft 0kts
07-Sep-21 08:16 46.975459 -122.898917 238 211ft 0kts
07-Sep-21 08:17 46.975458 -122.898919 238 211ft 0kts
07-Sep-21 08:18 46.975457 -122.898921 238 211ft 0kts
07-Sep-21 08:19 46.975456 -122.898924 238 211ft 0kts
07-Sep-21 08:20 46.975455 -122.898926 238 211ft 0kts
07-Sep-21 08:21 46.975454 -122.898929 238 211ft 0kts
07-Sep-21 08:22 46.975453 -122.898931 238 211ft 0kts
07-Sep-21 08:23 46.975452 -122.898934 238 211ft 0kts
07-Sep-21 08:23 46.975451 -122.898936 238 211ft 0kts
07-Sep-21 08:24 46.975450 -122.898938 238 211ft 0kts
07-Sep-21 08:26 46.975449 -122.898941 238 211ft 0kts
07-Sep-21 08:26 46.975448 -122.898943 238 211ft 0kts
07-Sep-21 08:27 46.975447 -122.898945 238 211ft 0kts
07-Sep-21 08:28 46.975613 -122.899761 312 211ft 5kts
07-Sep-21 08:30 46.976180 -122.901531 279 211ft 0kts
07-Sep-21 08:31 46.976180 -122.901533 279 211ft 0kts
07-Sep-21 08:31 46.976181 -122.901535 279 211ft 0kts
07-Sep-21 08:32 46.976181 -122.901538 279 211ft 0kts
07-Sep-21 08:33 46.976097 -122.902306 195 211ft 8kts
07-Sep-21 08:34 46.947370 -122.899968 120 1519ft 155kts
07-Sep-21 08:35 46.952004 -122.849294 79 2968ft 187kts
07-Sep-21 08:36 46.955940 -122.823937 74 3093ft 220kts
07-Sep-21 08:37 46.955940 -122.823937 74 3093ft 220kts
07-Sep-21 08:38 47.010345 -122.780526 10 3379ft 247kts
07-Sep-21 08:39 47.078477 -122.756166 11 3185ft 211kts
07-Sep-21 08:40 47.131738 -122.764185 314 2615ft 194kts
07-Sep-21 08:41 47.149329 -122.832283 258 2794ft 188kts
07-Sep-21 08:42 47.106162 -122.868521 185 2821ft 183kts
07-Sep-21 08:43 47.061940 -122.875313 187 2486ft 127kts
07-Sep-21 08:44 47.030405 -122.886976 196 2414ft 120kts
07-Sep-21 08:45 46.997218 -122.894788 161 1191ft 109kts
07-Sep-21 08:46 46.969630 -122.884215 237 366ft 106kts
07-Sep-21 08:47 46.986003 -122.917396 39 1065ft 155kts
07-Sep-21 08:48 46.995189 -122.865774 74 2703ft 159kts
07-Sep-21 08:49 47.011013 -122.799022 45 4194ft 180kts
07-Sep-21 08:50 47.058953 -122.775855 16 5692ft 200kts
07-Sep-21 08:51 47.112821 -122.770048 344 7015ft 239kts
07-Sep-21 08:52 47.112821 -122.770048 344 7015ft 239kts
07-Sep-21 08:53 47.165457 -122.796192 333 7074ft 269kts
07-Sep-21 08:54 47.235430 -122.839201 337 6985ft 278kts
07-Sep-21 08:55 47.310741 -122.861096 358 6867ft 280kts
07-Sep-21 08:56 47.386721 -122.862490 356 7386ft 270kts
07-Sep-21 08:57 47.463386 -122.861494 1 7018ft 266kts
07-Sep-21 08:58 47.535872 -122.846353 6 7323ft 255kts
07-Sep-21 08:59 47.610110 -122.833014 7 6817ft 271kts
07-Sep-21 09:00 47.673669 -122.793212 49 5028ft 231kts
07-Sep-21 09:01 47.714420 -122.727971 46 4947ft 211kts
07-Sep-21 09:02 47.756962 -122.670061 42 4364ft 206kts
07-Sep-21 09:03 47.800432 -122.613205 41 3582ft 212kts
07-Sep-21 09:04 47.843479 -122.557153 37 3139ft 201kts
07-Sep-21 09:05 47.882879 -122.503013 46 3063ft 190kts
07-Sep-21 09:06 47.930821 -122.500136 357 3104ft 184kts
07-Sep-21 09:07 47.980452 -122.481242 26 3074ft 187kts
07-Sep-21 09:08 48.022099 -122.435979 42 3084ft 187kts
07-Sep-21 09:09 48.054833 -122.376233 68 3042ft 188kts
07-Sep-21 09:10 48.068740 -122.302497 81 3141ft 184kts
07-Sep-21 09:11 48.028384 -122.274971 185 2437ft 196kts
07-Sep-21 09:12 47.980378 -122.283072 185 1438ft 130kts
07-Sep-21 09:13 47.941546 -122.290041 189 1420ft 146kts
07-Sep-21 09:14 47.903719 -122.294805 179 1117ft 126kts
07-Sep-21 09:15 47.894328 -122.285459 3 667ft 129kts
07-Sep-21 09:16 47.935252 -122.284642 1 2113ft 178kts
07-Sep-21 09:17 47.981311 -122.302917 284 4396ft 197kts
07-Sep-21 09:18 47.940805 -122.333524 178 5188ft 202kts
07-Sep-21 09:19 47.886682 -122.299612 155 5072ft 223kts
07-Sep-21 09:20 47.831618 -122.265507 158 4897ft 200kts
07-Sep-21 09:21 47.783248 -122.229084 137 5579ft 186kts
07-Sep-21 09:22 47.745453 -122.176356 137 7052ft 198kts
07-Sep-21 09:23 47.699996 -122.111811 136 7101ft 242kts
07-Sep-21 09:24 47.651500 -122.066135 197 6862ft 190kts
07-Sep-21 09:25 47.609170 -122.109196 215 7133ft 185kts
07-Sep-21 09:26 47.565549 -122.153563 193 7089ft 197kts
07-Sep-21 09:27 47.510888 -122.165638 187 6953ft 203kts
07-Sep-21 09:28 47.455871 -122.173029 185 6980ft 201kts
07-Sep-21 09:29 47.400642 -122.181804 184 7037ft 196kts
07-Sep-21 09:30 47.345763 -122.188798 185 7021ft 199kts
07-Sep-21 09:31 47.291464 -122.193028 184 5945ft 187kts
07-Sep-21 09:32 47.237836 -122.199691 186 4179ft 194kts
07-Sep-21 09:33 47.195508 -122.229033 252 3178ft 170kts
07-Sep-21 09:34 47.206301 -122.292439 327 3027ft 183kts
07-Sep-21 09:35 47.253641 -122.310977 358 3164ft 168kts
07-Sep-21 09:36 47.299687 -122.313244 355 3013ft 165kts
07-Sep-21 09:37 47.346705 -122.318679 358 2702ft 163kts
07-Sep-21 09:38 47.381835 -122.319427 0 1881ft 119kts
07-Sep-21 09:39 47.413583 -122.318861 0 1010ft 111kts
07-Sep-21 09:40 47.444313 -122.318076 1 437ft 95kts
07-Sep-21 09:41 47.459181 -122.316657 33 436ft 25kts
07-Sep-21 09:42 47.455381 -122.313547 180 436ft 41kts
07-Sep-21 09:43 47.444936 -122.313706 179 436ft 36kts
07-Sep-21 09:44 47.438070 -122.312374 358 436ft 10kts
07-Sep-21 09:45 47.438187 -122.315576 180 436ft 0kts

Navigation Log

Ident Type
Flight plan parsing failed, navigation log unavailable